sensor_id;sensor_type;location;lat;lon;timestamp;P1;durP1;ratioP1;P2;durP2;ratioP2
15155;SDS011;7678;50.058;8.306;2023-05-29T00:01:40;7.47;;;3.60;;
15155;SDS011;7678;50.058;8.306;2023-05-29T00:04:08;4.37;;;2.83;;
15155;SDS011;7678;50.058;8.306;2023-05-29T00:06:36;6.60;;;2.97;;
15155;SDS011;7678;50.058;8.306;2023-05-29T00:09:04;5.87;;;3.33;;
15155;SDS011;7678;50.058;8.306;2023-05-29T00:11:34;5.77;;;3.20;;
15155;SDS011;7678;50.058;8.306;2023-05-29T00:14:02;5.30;;;3.20;;
15155;SDS011;7678;50.058;8.306;2023-05-29T00:16:31;5.73;;;3.20;;
15155;SDS011;7678;50.058;8.306;2023-05-29T00:18:59;5.30;;;2.77;;
15155;SDS011;7678;50.058;8.306;2023-05-29T00:21:27;5.10;;;3.10;;
15155;SDS011;7678;50.058;8.306;2023-05-29T00:23:55;5.47;;;3.00;;
15155;SDS011;7678;50.058;8.306;2023-05-29T00:26:23;5.23;;;3.03;;
15155;SDS011;7678;50.058;8.306;2023-05-29T00:28:52;6.23;;;3.07;;
15155;SDS011;7678;50.058;8.306;2023-05-29T00:31:20;5.07;;;3.23;;
15155;SDS011;7678;50.058;8.306;2023-05-29T00:33:50;8.07;;;3.47;;
15155;SDS011;7678;50.058;8.306;2023-05-29T00:36:18;6.47;;;3.07;;
15155;SDS011;7678;50.058;8.306;2023-05-29T00:38:47;5.83;;;2.80;;
15155;SDS011;7678;50.058;8.306;2023-05-29T00:41:15;6.13;;;3.00;;
15155;SDS011;7678;50.058;8.306;2023-05-29T00:43:43;6.47;;;2.87;;
15155;SDS011;7678;50.058;8.306;2023-05-29T00:46:13;6.50;;;3.33;;
15155;SDS011;7678;50.058;8.306;2023-05-29T00:48:43;7.57;;;3.23;;
15155;SDS011;7678;50.058;8.306;2023-05-29T00:51:11;7.97;;;3.70;;
15155;SDS011;7678;50.058;8.306;2023-05-29T00:53:41;6.07;;;3.40;;
15155;SDS011;7678;50.058;8.306;2023-05-29T00:56:11;9.37;;;3.47;;
15155;SDS011;7678;50.058;8.306;2023-05-29T00:58:41;7.07;;;3.20;;
15155;SDS011;7678;50.058;8.306;2023-05-29T01:01:09;7.03;;;3.73;;
15155;SDS011;7678;50.058;8.306;2023-05-29T01:03:39;5.67;;;3.10;;
15155;SDS011;7678;50.058;8.306;2023-05-29T01:06:08;8.13;;;2.97;;
15155;SDS011;7678;50.058;8.306;2023-05-29T01:08:37;4.97;;;3.30;;
15155;SDS011;7678;50.058;8.306;2023-05-29T01:11:07;4.63;;;3.10;;
15155;SDS011;7678;50.058;8.306;2023-05-29T01:13:40;5.00;;;3.07;;
15155;SDS011;7678;50.058;8.306;2023-05-29T01:16:12;7.03;;;3.00;;
15155;SDS011;7678;50.058;8.306;2023-05-29T01:18:53;5.57;;;3.23;;
15155;SDS011;7678;50.058;8.306;2023-05-29T01:21:26;6.70;;;3.17;;
15155;SDS011;7678;50.058;8.306;2023-05-29T01:24:03;7.03;;;3.77;;
15155;SDS011;7678;50.058;8.306;2023-05-29T01:26:52;5.30;;;2.83;;
15155;SDS011;7678;50.058;8.306;2023-05-29T01:29:24;7.07;;;3.60;;
15155;SDS011;7678;50.058;8.306;2023-05-29T01:31:55;6.83;;;3.10;;
15155;SDS011;7678;50.058;8.306;2023-05-29T01:34:23;6.43;;;3.10;;
15155;SDS011;7678;50.058;8.306;2023-05-29T01:36:52;5.30;;;3.03;;
15155;SDS011;7678;50.058;8.306;2023-05-29T01:39:19;6.27;;;3.73;;
15155;SDS011;7678;50.058;8.306;2023-05-29T01:41:48;6.43;;;3.17;;
15155;SDS011;7678;50.058;8.306;2023-05-29T01:44:18;6.53;;;3.27;;
15155;SDS011;7678;50.058;8.306;2023-05-29T01:46:47;6.80;;;3.27;;
15155;SDS011;7678;50.058;8.306;2023-05-29T01:49:17;5.33;;;3.20;;
15155;SDS011;7678;50.058;8.306;2023-05-29T01:51:46;5.70;;;3.10;;
15155;SDS011;7678;50.058;8.306;2023-05-29T01:54:14;5.63;;;3.30;;
15155;SDS011;7678;50.058;8.306;2023-05-29T01:56:42;4.43;;;3.03;;
15155;SDS011;7678;50.058;8.306;2023-05-29T01:59:11;6.30;;;3.63;;
15155;SDS011;7678;50.058;8.306;2023-05-29T02:01:41;5.33;;;3.23;;
15155;SDS011;7678;50.058;8.306;2023-05-29T02:04:09;5.20;;;3.20;;
15155;SDS011;7678;50.058;8.306;2023-05-29T02:06:37;5.27;;;3.27;;
15155;SDS011;7678;50.058;8.306;2023-05-29T02:09:05;3.60;;;2.50;;
15155;SDS011;7678;50.058;8.306;2023-05-29T02:11:33;4.73;;;3.10;;
15155;SDS011;7678;50.058;8.306;2023-05-29T02:14:01;6.20;;;3.77;;
15155;SDS011;7678;50.058;8.306;2023-05-29T02:16:30;7.20;;;3.37;;
15155;SDS011;7678;50.058;8.306;2023-05-29T02:19:01;6.90;;;2.90;;
15155;SDS011;7678;50.058;8.306;2023-05-29T02:21:30;7.13;;;3.10;;
15155;SDS011;7678;50.058;8.306;2023-05-29T02:23:58;6.17;;;3.40;;
15155;SDS011;7678;50.058;8.306;2023-05-29T02:26:26;5.53;;;3.57;;
15155;SDS011;7678;50.058;8.306;2023-05-29T02:28:54;4.30;;;3.17;;
15155;SDS011;7678;50.058;8.306;2023-05-29T02:31:22;8.97;;;3.50;;
15155;SDS011;7678;50.058;8.306;2023-05-29T02:33:50;5.27;;;3.50;;
15155;SDS011;7678;50.058;8.306;2023-05-29T02:36:19;8.70;;;3.17;;
15155;SDS011;7678;50.058;8.306;2023-05-29T02:38:47;5.37;;;3.03;;
15155;SDS011;7678;50.058;8.306;2023-05-29T02:41:15;5.90;;;3.27;;
15155;SDS011;7678;50.058;8.306;2023-05-29T02:43:43;5.33;;;2.90;;
15155;SDS011;7678;50.058;8.306;2023-05-29T02:46:11;4.43;;;3.20;;
15155;SDS011;7678;50.058;8.306;2023-05-29T02:48:39;6.33;;;3.57;;
15155;SDS011;7678;50.058;8.306;2023-05-29T02:51:07;5.63;;;3.40;;
15155;SDS011;7678;50.058;8.306;2023-05-29T02:53:37;5.60;;;3.23;;
15155;SDS011;7678;50.058;8.306;2023-05-29T02:56:05;5.37;;;3.13;;
15155;SDS011;7678;50.058;8.306;2023-05-29T02:58:34;4.83;;;2.87;;
15155;SDS011;7678;50.058;8.306;2023-05-29T03:01:02;6.10;;;3.13;;
15155;SDS011;7678;50.058;8.306;2023-05-29T03:03:31;4.67;;;3.03;;
15155;SDS011;7678;50.058;8.306;2023-05-29T03:05:59;6.27;;;3.40;;
15155;SDS011;7678;50.058;8.306;2023-05-29T03:08:28;6.03;;;3.17;;
15155;SDS011;7678;50.058;8.306;2023-05-29T03:10:58;5.47;;;3.10;;
15155;SDS011;7678;50.058;8.306;2023-05-29T03:13:26;4.83;;;2.80;;
15155;SDS011;7678;50.058;8.306;2023-05-29T03:15:54;4.53;;;2.80;;
15155;SDS011;7678;50.058;8.306;2023-05-29T03:18:23;5.90;;;2.80;;
15155;SDS011;7678;50.058;8.306;2023-05-29T03:20:51;5.30;;;3.00;;
15155;SDS011;7678;50.058;8.306;2023-05-29T03:23:20;5.57;;;3.57;;
15155;SDS011;7678;50.058;8.306;2023-05-29T03:25:52;7.07;;;3.37;;
15155;SDS011;7678;50.058;8.306;2023-05-29T03:28:22;4.07;;;3.00;;
15155;SDS011;7678;50.058;8.306;2023-05-29T03:30:50;6.47;;;2.93;;
15155;SDS011;7678;50.058;8.306;2023-05-29T03:33:18;4.40;;;2.60;;
15155;SDS011;7678;50.058;8.306;2023-05-29T03:35:46;3.27;;;2.77;;
15155;SDS011;7678;50.058;8.306;2023-05-29T03:38:14;8.67;;;3.30;;
15155;SDS011;7678;50.058;8.306;2023-05-29T03:40:42;4.23;;;2.83;;
15155;SDS011;7678;50.058;8.306;2023-05-29T03:43:10;4.17;;;2.90;;
15155;SDS011;7678;50.058;8.306;2023-05-29T03:45:39;4.47;;;2.97;;
15155;SDS011;7678;50.058;8.306;2023-05-29T03:48:07;6.73;;;3.20;;
15155;SDS011;7678;50.058;8.306;2023-05-29T03:50:35;5.27;;;3.03;;
15155;SDS011;7678;50.058;8.306;2023-05-29T03:53:03;4.70;;;3.20;;
15155;SDS011;7678;50.058;8.306;2023-05-29T03:55:31;4.87;;;3.20;;
15155;SDS011;7678;50.058;8.306;2023-05-29T03:57:59;7.33;;;3.37;;
15155;SDS011;7678;50.058;8.306;2023-05-29T04:00:27;5.10;;;3.07;;
15155;SDS011;7678;50.058;8.306;2023-05-29T04:02:57;6.70;;;3.20;;
15155;SDS011;7678;50.058;8.306;2023-05-29T04:05:25;7.80;;;3.93;;
15155;SDS011;7678;50.058;8.306;2023-05-29T04:07:53;7.50;;;3.40;;
15155;SDS011;7678;50.058;8.306;2023-05-29T04:10:40;7.70;;;3.40;;
15155;SDS011;7678;50.058;8.306;2023-05-29T04:13:09;6.53;;;3.50;;
15155;SDS011;7678;50.058;8.306;2023-05-29T04:15:37;7.80;;;3.63;;
15155;SDS011;7678;50.058;8.306;2023-05-29T04:18:07;7.20;;;3.10;;
15155;SDS011;7678;50.058;8.306;2023-05-29T04:20:35;5.77;;;3.83;;
15155;SDS011;7678;50.058;8.306;2023-05-29T04:23:03;8.17;;;3.40;;
15155;SDS011;7678;50.058;8.306;2023-05-29T04:25:31;6.33;;;3.10;;
15155;SDS011;7678;50.058;8.306;2023-05-29T04:28:00;6.17;;;3.10;;
15155;SDS011;7678;50.058;8.306;2023-05-29T04:30:29;8.73;;;3.43;;
15155;SDS011;7678;50.058;8.306;2023-05-29T04:33:00;7.87;;;3.20;;
15155;SDS011;7678;50.058;8.306;2023-05-29T04:35:29;4.60;;;3.17;;
15155;SDS011;7678;50.058;8.306;2023-05-29T04:37:57;9.00;;;3.73;;
15155;SDS011;7678;50.058;8.306;2023-05-29T04:40:25;4.77;;;3.10;;
15155;SDS011;7678;50.058;8.306;2023-05-29T04:42:53;8.33;;;3.70;;
15155;SDS011;7678;50.058;8.306;2023-05-29T04:45:21;4.90;;;3.57;;
15155;SDS011;7678;50.058;8.306;2023-05-29T04:47:50;6.70;;;3.50;;
15155;SDS011;7678;50.058;8.306;2023-05-29T04:50:19;7.30;;;3.47;;
15155;SDS011;7678;50.058;8.306;2023-05-29T04:52:50;5.63;;;3.50;;
15155;SDS011;7678;50.058;8.306;2023-05-29T04:55:18;5.13;;;3.63;;
15155;SDS011;7678;50.058;8.306;2023-05-29T04:57:47;8.23;;;3.83;;
15155;SDS011;7678;50.058;8.306;2023-05-29T05:00:15;6.03;;;3.23;;
15155;SDS011;7678;50.058;8.306;2023-05-29T05:02:44;6.47;;;3.60;;
15155;SDS011;7678;50.058;8.306;2023-05-29T05:05:13;5.57;;;3.53;;
15155;SDS011;7678;50.058;8.306;2023-05-29T05:07:40;7.60;;;4.20;;
15155;SDS011;7678;50.058;8.306;2023-05-29T05:10:10;4.60;;;3.47;;
15155;SDS011;7678;50.058;8.306;2023-05-29T05:12:38;6.33;;;3.80;;
15155;SDS011;7678;50.058;8.306;2023-05-29T05:15:07;6.83;;;3.67;;
15155;SDS011;7678;50.058;8.306;2023-05-29T05:17:36;7.77;;;3.77;;
15155;SDS011;7678;50.058;8.306;2023-05-29T05:20:04;6.20;;;3.70;;
15155;SDS011;7678;50.058;8.306;2023-05-29T05:22:34;9.37;;;4.20;;
15155;SDS011;7678;50.058;8.306;2023-05-29T05:25:03;8.33;;;3.77;;
15155;SDS011;7678;50.058;8.306;2023-05-29T05:27:33;6.63;;;3.57;;
15155;SDS011;7678;50.058;8.306;2023-05-29T05:30:01;6.23;;;3.53;;
15155;SDS011;7678;50.058;8.306;2023-05-29T05:32:29;8.93;;;4.17;;
15155;SDS011;7678;50.058;8.306;2023-05-29T05:34:57;8.50;;;3.73;;
15155;SDS011;7678;50.058;8.306;2023-05-29T05:37:25;7.40;;;3.90;;
15155;SDS011;7678;50.058;8.306;2023-05-29T05:39:53;6.90;;;3.80;;
15155;SDS011;7678;50.058;8.306;2023-05-29T05:42:23;9.00;;;3.80;;
15155;SDS011;7678;50.058;8.306;2023-05-29T05:44:53;8.70;;;3.90;;
15155;SDS011;7678;50.058;8.306;2023-05-29T05:47:21;6.47;;;3.70;;
15155;SDS011;7678;50.058;8.306;2023-05-29T05:49:49;8.47;;;3.87;;
15155;SDS011;7678;50.058;8.306;2023-05-29T05:52:17;9.03;;;3.77;;
15155;SDS011;7678;50.058;8.306;2023-05-29T05:54:45;7.67;;;4.00;;
15155;SDS011;7678;50.058;8.306;2023-05-29T05:57:13;7.33;;;3.57;;
15155;SDS011;7678;50.058;8.306;2023-05-29T05:59:41;7.33;;;3.40;;
15155;SDS011;7678;50.058;8.306;2023-05-29T06:02:11;6.90;;;3.30;;
15155;SDS011;7678;50.058;8.306;2023-05-29T06:04:39;7.47;;;3.30;;
15155;SDS011;7678;50.058;8.306;2023-05-29T06:07:08;4.33;;;3.50;;
15155;SDS011;7678;50.058;8.306;2023-05-29T06:09:36;6.90;;;4.10;;
15155;SDS011;7678;50.058;8.306;2023-05-29T06:12:05;7.53;;;3.90;;
15155;SDS011;7678;50.058;8.306;2023-05-29T06:14:34;5.00;;;3.60;;
15155;SDS011;7678;50.058;8.306;2023-05-29T06:17:02;4.27;;;3.40;;
15155;SDS011;7678;50.058;8.306;2023-05-29T06:19:32;6.63;;;3.60;;
15155;SDS011;7678;50.058;8.306;2023-05-29T06:22:00;7.33;;;3.97;;
15155;SDS011;7678;50.058;8.306;2023-05-29T06:24:28;4.60;;;3.37;;
15155;SDS011;7678;50.058;8.306;2023-05-29T06:26:56;5.03;;;3.60;;
15155;SDS011;7678;50.058;8.306;2023-05-29T06:29:24;5.53;;;3.17;;
15155;SDS011;7678;50.058;8.306;2023-05-29T06:31:52;7.33;;;3.77;;
15155;SDS011;7678;50.058;8.306;2023-05-29T06:34:20;5.40;;;3.20;;
15155;SDS011;7678;50.058;8.306;2023-05-29T06:36:50;6.93;;;3.77;;
15155;SDS011;7678;50.058;8.306;2023-05-29T06:39:18;7.07;;;3.30;;
15155;SDS011;7678;50.058;8.306;2023-05-29T06:41:46;7.60;;;3.63;;
15155;SDS011;7678;50.058;8.306;2023-05-29T06:44:14;9.10;;;2.90;;
15155;SDS011;7678;50.058;8.306;2023-05-29T06:46:42;5.70;;;3.20;;
15155;SDS011;7678;50.058;8.306;2023-05-29T06:49:10;6.70;;;3.20;;
15155;SDS011;7678;50.058;8.306;2023-05-29T06:51:38;8.63;;;3.77;;
15155;SDS011;7678;50.058;8.306;2023-05-29T06:54:07;5.60;;;3.00;;
15155;SDS011;7678;50.058;8.306;2023-05-29T06:56:35;6.47;;;3.13;;
15155;SDS011;7678;50.058;8.306;2023-05-29T06:59:03;5.03;;;3.27;;
15155;SDS011;7678;50.058;8.306;2023-05-29T07:01:31;7.50;;;3.30;;
15155;SDS011;7678;50.058;8.306;2023-05-29T07:03:59;5.47;;;3.30;;
15155;SDS011;7678;50.058;8.306;2023-05-29T07:06:28;4.60;;;2.80;;
15155;SDS011;7678;50.058;8.306;2023-05-29T07:08:55;3.50;;;2.73;;
15155;SDS011;7678;50.058;8.306;2023-05-29T07:11:25;6.63;;;2.90;;
15155;SDS011;7678;50.058;8.306;2023-05-29T07:13:53;5.07;;;2.87;;
15155;SDS011;7678;50.058;8.306;2023-05-29T07:16:21;5.57;;;2.80;;
15155;SDS011;7678;50.058;8.306;2023-05-29T07:18:50;5.57;;;2.67;;
15155;SDS011;7678;50.058;8.306;2023-05-29T07:21:18;7.50;;;3.10;;
15155;SDS011;7678;50.058;8.306;2023-05-29T07:23:47;3.80;;;2.87;;
15155;SDS011;7678;50.058;8.306;2023-05-29T07:26:15;4.23;;;2.70;;
15155;SDS011;7678;50.058;8.306;2023-05-29T07:28:45;6.73;;;3.10;;
15155;SDS011;7678;50.058;8.306;2023-05-29T07:31:13;4.70;;;3.00;;
15155;SDS011;7678;50.058;8.306;2023-05-29T07:33:41;4.30;;;2.97;;
15155;SDS011;7678;50.058;8.306;2023-05-29T07:36:09;4.73;;;2.97;;
15155;SDS011;7678;50.058;8.306;2023-05-29T07:38:37;4.17;;;2.80;;
15155;SDS011;7678;50.058;8.306;2023-05-29T07:41:05;8.43;;;2.80;;
15155;SDS011;7678;50.058;8.306;2023-05-29T07:43:33;5.20;;;2.97;;
15155;SDS011;7678;50.058;8.306;2023-05-29T07:46:03;4.20;;;2.60;;
15155;SDS011;7678;50.058;8.306;2023-05-29T07:48:31;5.20;;;2.80;;
15155;SDS011;7678;50.058;8.306;2023-05-29T07:50:59;5.33;;;3.27;;
15155;SDS011;7678;50.058;8.306;2023-05-29T07:53:31;5.90;;;3.03;;
15155;SDS011;7678;50.058;8.306;2023-05-29T07:55:59;4.13;;;2.70;;
15155;SDS011;7678;50.058;8.306;2023-05-29T07:58:27;4.67;;;2.77;;
15155;SDS011;7678;50.058;8.306;2023-05-29T08:00:55;5.27;;;2.50;;
15155;SDS011;7678;50.058;8.306;2023-05-29T08:03:25;5.07;;;2.80;;
15155;SDS011;7678;50.058;8.306;2023-05-29T08:05:55;3.47;;;2.53;;
15155;SDS011;7678;50.058;8.306;2023-05-29T08:08:23;5.03;;;2.63;;
15155;SDS011;7678;50.058;8.306;2023-05-29T08:10:54;5.70;;;2.83;;
15155;SDS011;7678;50.058;8.306;2023-05-29T08:13:23;5.27;;;2.40;;
15155;SDS011;7678;50.058;8.306;2023-05-29T08:15:51;4.27;;;2.63;;
15155;SDS011;7678;50.058;8.306;2023-05-29T08:18:19;6.83;;;2.90;;
15155;SDS011;7678;50.058;8.306;2023-05-29T08:20:48;6.30;;;3.10;;
15155;SDS011;7678;50.058;8.306;2023-05-29T08:23:17;7.40;;;2.57;;
15155;SDS011;7678;50.058;8.306;2023-05-29T08:25:45;5.87;;;3.03;;
15155;SDS011;7678;50.058;8.306;2023-05-29T08:28:14;5.33;;;2.47;;
15155;SDS011;7678;50.058;8.306;2023-05-29T08:30:42;6.23;;;2.70;;
15155;SDS011;7678;50.058;8.306;2023-05-29T08:33:10;4.73;;;2.97;;
15155;SDS011;7678;50.058;8.306;2023-05-29T08:35:38;4.43;;;3.03;;
15155;SDS011;7678;50.058;8.306;2023-05-29T08:38:08;4.33;;;2.97;;
15155;SDS011;7678;50.058;8.306;2023-05-29T08:40:36;9.27;;;3.13;;
15155;SDS011;7678;50.058;8.306;2023-05-29T08:43:06;5.23;;;2.73;;
15155;SDS011;7678;50.058;8.306;2023-05-29T08:45:38;5.23;;;2.87;;
15155;SDS011;7678;50.058;8.306;2023-05-29T08:48:11;4.47;;;2.77;;
15155;SDS011;7678;50.058;8.306;2023-05-29T08:50:40;6.67;;;2.90;;
15155;SDS011;7678;50.058;8.306;2023-05-29T08:53:13;4.83;;;2.90;;
15155;SDS011;7678;50.058;8.306;2023-05-29T08:55:43;4.80;;;2.73;;
15155;SDS011;7678;50.058;8.306;2023-05-29T08:58:13;6.43;;;2.90;;
15155;SDS011;7678;50.058;8.306;2023-05-29T09:00:44;4.70;;;2.70;;
15155;SDS011;7678;50.058;8.306;2023-05-29T09:03:13;6.37;;;2.90;;
15155;SDS011;7678;50.058;8.306;2023-05-29T09:05:41;5.27;;;2.97;;
15155;SDS011;7678;50.058;8.306;2023-05-29T09:08:10;6.33;;;2.97;;
15155;SDS011;7678;50.058;8.306;2023-05-29T09:10:41;3.87;;;2.73;;
15155;SDS011;7678;50.058;8.306;2023-05-29T09:13:10;4.07;;;3.00;;
15155;SDS011;7678;50.058;8.306;2023-05-29T09:15:41;6.40;;;2.90;;
15155;SDS011;7678;50.058;8.306;2023-05-29T09:18:10;5.20;;;3.10;;
15155;SDS011;7678;50.058;8.306;2023-05-29T09:20:38;4.77;;;2.60;;
15155;SDS011;7678;50.058;8.306;2023-05-29T09:23:09;4.50;;;2.80;;
15155;SDS011;7678;50.058;8.306;2023-05-29T09:25:41;3.97;;;3.13;;
15155;SDS011;7678;50.058;8.306;2023-05-29T09:28:10;4.57;;;2.63;;
15155;SDS011;7678;50.058;8.306;2023-05-29T09:30:38;8.17;;;3.07;;
15155;SDS011;7678;50.058;8.306;2023-05-29T09:33:08;6.07;;;3.20;;
15155;SDS011;7678;50.058;8.306;2023-05-29T09:35:37;6.00;;;3.03;;
15155;SDS011;7678;50.058;8.306;2023-05-29T09:38:06;7.40;;;3.00;;
15155;SDS011;7678;50.058;8.306;2023-05-29T09:40:35;7.33;;;2.90;;
15155;SDS011;7678;50.058;8.306;2023-05-29T09:43:09;8.10;;;3.00;;
15155;SDS011;7678;50.058;8.306;2023-05-29T09:45:38;4.83;;;2.80;;
15155;SDS011;7678;50.058;8.306;2023-05-29T09:48:07;5.13;;;2.60;;
15155;SDS011;7678;50.058;8.306;2023-05-29T09:50:39;5.57;;;3.10;;
15155;SDS011;7678;50.058;8.306;2023-05-29T09:53:21;7.93;;;3.10;;
15155;SDS011;7678;50.058;8.306;2023-05-29T09:55:51;5.00;;;3.03;;
15155;SDS011;7678;50.058;8.306;2023-05-29T09:58:22;6.57;;;3.20;;
15155;SDS011;7678;50.058;8.306;2023-05-29T10:00:52;6.73;;;3.30;;
15155;SDS011;7678;50.058;8.306;2023-05-29T10:03:20;7.97;;;2.87;;
15155;SDS011;7678;50.058;8.306;2023-05-29T10:05:51;4.67;;;3.07;;
15155;SDS011;7678;50.058;8.306;2023-05-29T10:08:23;4.27;;;3.10;;
15155;SDS011;7678;50.058;8.306;2023-05-29T10:10:54;4.10;;;2.93;;
15155;SDS011;7678;50.058;8.306;2023-05-29T10:13:31;5.97;;;2.80;;
15155;SDS011;7678;50.058;8.306;2023-05-29T10:16:09;4.10;;;2.90;;
15155;SDS011;7678;50.058;8.306;2023-05-29T10:19:04;5.90;;;2.80;;
15155;SDS011;7678;50.058;8.306;2023-05-29T10:21:39;4.80;;;2.80;;
15155;SDS011;7678;50.058;8.306;2023-05-29T10:24:08;6.13;;;2.87;;
15155;SDS011;7678;50.058;8.306;2023-05-29T10:26:40;6.17;;;2.93;;
15155;SDS011;7678;50.058;8.306;2023-05-29T10:29:15;5.23;;;3.27;;
15155;SDS011;7678;50.058;8.306;2023-05-29T10:31:56;4.07;;;2.93;;
15155;SDS011;7678;50.058;8.306;2023-05-29T10:34:33;5.10;;;3.33;;
15155;SDS011;7678;50.058;8.306;2023-05-29T10:37:14;6.67;;;3.10;;
15155;SDS011;7678;50.058;8.306;2023-05-29T10:39:53;5.30;;;2.87;;
15155;SDS011;7678;50.058;8.306;2023-05-29T10:48:36;5.10;;;2.80;;
15155;SDS011;7678;50.058;8.306;2023-05-29T10:51:07;5.53;;;2.83;;
15155;SDS011;7678;50.058;8.306;2023-05-29T10:53:36;3.67;;;2.63;;
15155;SDS011;7678;50.058;8.306;2023-05-29T10:56:08;3.10;;;2.70;;
15155;SDS011;7678;50.058;8.306;2023-05-29T10:58:43;6.20;;;3.37;;
15155;SDS011;7678;50.058;8.306;2023-05-29T11:01:13;5.17;;;3.40;;
15155;SDS011;7678;50.058;8.306;2023-05-29T11:03:41;4.00;;;2.77;;
15155;SDS011;7678;50.058;8.306;2023-05-29T11:06:16;4.63;;;2.67;;
15155;SDS011;7678;50.058;8.306;2023-05-29T11:08:47;6.73;;;3.13;;
15155;SDS011;7678;50.058;8.306;2023-05-29T11:11:28;8.50;;;3.10;;
15155;SDS011;7678;50.058;8.306;2023-05-29T11:14:01;4.50;;;2.63;;
15155;SDS011;7678;50.058;8.306;2023-05-29T11:16:39;5.07;;;2.77;;
15155;SDS011;7678;50.058;8.306;2023-05-29T11:19:07;4.93;;;2.77;;
15155;SDS011;7678;50.058;8.306;2023-05-29T11:21:46;5.87;;;2.83;;
15155;SDS011;7678;50.058;8.306;2023-05-29T11:24:24;4.23;;;2.70;;
15155;SDS011;7678;50.058;8.306;2023-05-29T11:26:55;5.50;;;2.97;;
15155;SDS011;7678;50.058;8.306;2023-05-29T11:29:27;4.63;;;3.10;;
15155;SDS011;7678;50.058;8.306;2023-05-29T11:32:03;3.67;;;2.70;;
15155;SDS011;7678;50.058;8.306;2023-05-29T11:34:35;7.47;;;3.10;;
15155;SDS011;7678;50.058;8.306;2023-05-29T11:37:06;7.30;;;2.77;;
15155;SDS011;7678;50.058;8.306;2023-05-29T11:39:35;5.37;;;2.80;;
15155;SDS011;7678;50.058;8.306;2023-05-29T11:42:04;4.82;;;3.33;;
15155;SDS011;7678;50.058;8.306;2023-05-29T11:44:32;5.60;;;2.78;;
15155;SDS011;7678;50.058;8.306;2023-05-29T11:47:02;5.10;;;2.55;;
15155;SDS011;7678;50.058;8.306;2023-05-29T11:49:32;4.18;;;3.10;;
15155;SDS011;7678;50.058;8.306;2023-05-29T11:52:07;5.35;;;3.20;;
15155;SDS011;7678;50.058;8.306;2023-05-29T11:54:42;6.25;;;3.40;;
15155;SDS011;7678;50.058;8.306;2023-05-29T11:57:17;3.05;;;2.40;;
15155;SDS011;7678;50.058;8.306;2023-05-29T11:59:45;6.45;;;3.10;;
15155;SDS011;7678;50.058;8.306;2023-05-29T12:02:15;4.43;;;3.05;;
15155;SDS011;7678;50.058;8.306;2023-05-29T12:04:43;5.15;;;3.22;;
15155;SDS011;7678;50.058;8.306;2023-05-29T12:07:17;5.53;;;2.90;;
15155;SDS011;7678;50.058;8.306;2023-05-29T12:09:45;4.47;;;3.15;;
15155;SDS011;7678;50.058;8.306;2023-05-29T12:12:21;3.38;;;2.78;;
15155;SDS011;7678;50.058;8.306;2023-05-29T12:14:53;5.78;;;2.90;;
15155;SDS011;7678;50.058;8.306;2023-05-29T12:17:22;9.75;;;3.58;;
15155;SDS011;7678;50.058;8.306;2023-05-29T12:19:52;4.53;;;3.00;;
15155;SDS011;7678;50.058;8.306;2023-05-29T12:22:29;4.40;;;2.85;;
15155;SDS011;7678;50.058;8.306;2023-05-29T12:25:03;5.57;;;2.97;;
15155;SDS011;7678;50.058;8.306;2023-05-29T12:27:33;4.20;;;3.42;;
15155;SDS011;7678;50.058;8.306;2023-05-29T12:30:08;5.10;;;3.10;;
15155;SDS011;7678;50.058;8.306;2023-05-29T12:32:47;3.67;;;2.60;;
15155;SDS011;7678;50.058;8.306;2023-05-29T12:35:17;5.90;;;2.70;;
15155;SDS011;7678;50.058;8.306;2023-05-29T12:37:46;4.53;;;3.10;;
15155;SDS011;7678;50.058;8.306;2023-05-29T12:40:19;4.65;;;3.20;;
15155;SDS011;7678;50.058;8.306;2023-05-29T12:42:48;6.07;;;3.00;;
15155;SDS011;7678;50.058;8.306;2023-05-29T12:45:24;4.47;;;3.25;;
15155;SDS011;7678;50.058;8.306;2023-05-29T12:47:55;5.30;;;2.83;;
15155;SDS011;7678;50.058;8.306;2023-05-29T12:50:25;3.83;;;2.70;;
15155;SDS011;7678;50.058;8.306;2023-05-29T12:52:54;3.53;;;2.83;;
15155;SDS011;7678;50.058;8.306;2023-05-29T12:55:23;4.82;;;2.90;;
15155;SDS011;7678;50.058;8.306;2023-05-29T12:57:53;4.03;;;3.13;;
15155;SDS011;7678;50.058;8.306;2023-05-29T13:00:21;5.95;;;2.95;;
15155;SDS011;7678;50.058;8.306;2023-05-29T13:02:50;5.43;;;4.07;;
15155;SDS011;7678;50.058;8.306;2023-05-29T13:05:20;3.97;;;3.00;;
15155;SDS011;7678;50.058;8.306;2023-05-29T13:07:49;4.40;;;2.95;;
15155;SDS011;7678;50.058;8.306;2023-05-29T13:10:18;5.47;;;3.45;;
15155;SDS011;7678;50.058;8.306;2023-05-29T13:12:47;4.22;;;3.30;;
15155;SDS011;7678;50.058;8.306;2023-05-29T13:15:20;7.72;;;3.53;;
15155;SDS011;7678;50.058;8.306;2023-05-29T13:17:49;4.22;;;3.03;;
15155;SDS011;7678;50.058;8.306;2023-05-29T13:20:18;6.22;;;3.70;;
15155;SDS011;7678;50.058;8.306;2023-05-29T13:22:48;8.55;;;3.10;;
15155;SDS011;7678;50.058;8.306;2023-05-29T13:25:17;6.50;;;3.53;;
15155;SDS011;7678;50.058;8.306;2023-05-29T13:27:48;7.57;;;3.67;;
15155;SDS011;7678;50.058;8.306;2023-05-29T13:30:16;4.47;;;3.35;;
15155;SDS011;7678;50.058;8.306;2023-05-29T13:32:45;7.38;;;3.58;;
15155;SDS011;7678;50.058;8.306;2023-05-29T13:35:13;4.05;;;2.75;;
15155;SDS011;7678;50.058;8.306;2023-05-29T13:37:46;6.13;;;3.00;;
15155;SDS011;7678;50.058;8.306;2023-05-29T13:40:15;6.38;;;3.55;;
15155;SDS011;7678;50.058;8.306;2023-05-29T13:42:43;4.22;;;2.63;;
15155;SDS011;7678;50.058;8.306;2023-05-29T13:45:12;5.03;;;3.25;;
15155;SDS011;7678;50.058;8.306;2023-05-29T13:47:40;6.28;;;2.78;;
15155;SDS011;7678;50.058;8.306;2023-05-29T13:50:09;7.05;;;3.25;;
15155;SDS011;7678;50.058;8.306;2023-05-29T13:52:39;4.35;;;3.65;;
15155;SDS011;7678;50.058;8.306;2023-05-29T13:55:09;6.90;;;3.05;;
15155;SDS011;7678;50.058;8.306;2023-05-29T13:57:37;6.80;;;3.47;;
15155;SDS011;7678;50.058;8.306;2023-05-29T14:00:06;6.38;;;4.18;;
15155;SDS011;7678;50.058;8.306;2023-05-29T14:02:36;16.45;;;13.63;;
15155;SDS011;7678;50.058;8.306;2023-05-29T14:05:05;17.00;;;12.82;;
15155;SDS011;7678;50.058;8.306;2023-05-29T14:07:34;24.17;;;21.70;;
15155;SDS011;7678;50.058;8.306;2023-05-29T14:10:02;20.58;;;16.23;;
15155;SDS011;7678;50.058;8.306;2023-05-29T14:12:33;7.60;;;4.25;;
15155;SDS011;7678;50.058;8.306;2023-05-29T14:15:01;12.20;;;9.82;;
15155;SDS011;7678;50.058;8.306;2023-05-29T14:17:30;11.80;;;8.18;;
15155;SDS011;7678;50.058;8.306;2023-05-29T14:19:59;7.18;;;5.78;;
15155;SDS011;7678;50.058;8.306;2023-05-29T14:22:30;7.72;;;5.47;;
15155;SDS011;7678;50.058;8.306;2023-05-29T14:24:58;5.95;;;4.72;;
15155;SDS011;7678;50.058;8.306;2023-05-29T14:27:27;9.73;;;5.78;;
15155;SDS011;7678;50.058;8.306;2023-05-29T14:29:57;7.70;;;4.15;;
15155;SDS011;7678;50.058;8.306;2023-05-29T14:32:26;7.25;;;4.25;;
15155;SDS011;7678;50.058;8.306;2023-05-29T14:34:54;5.28;;;4.18;;
15155;SDS011;7678;50.058;8.306;2023-05-29T14:37:24;7.32;;;4.45;;
15155;SDS011;7678;50.058;8.306;2023-05-29T14:39:52;7.25;;;4.93;;
15155;SDS011;7678;50.058;8.306;2023-05-29T14:42:20;8.35;;;5.93;;
15155;SDS011;7678;50.058;8.306;2023-05-29T14:44:48;4.43;;;3.17;;
15155;SDS011;7678;50.058;8.306;2023-05-29T14:47:18;5.25;;;3.97;;
15155;SDS011;7678;50.058;8.306;2023-05-29T14:49:46;6.88;;;3.60;;
15155;SDS011;7678;50.058;8.306;2023-05-29T14:52:15;5.13;;;3.78;;
15155;SDS011;7678;50.058;8.306;2023-05-29T14:54:43;3.25;;;2.95;;
15155;SDS011;7678;50.058;8.306;2023-05-29T14:57:11;5.90;;;4.40;;
15155;SDS011;7678;50.058;8.306;2023-05-29T14:59:39;7.28;;;5.50;;
15155;SDS011;7678;50.058;8.306;2023-05-29T15:02:07;4.70;;;3.55;;
15155;SDS011;7678;50.058;8.306;2023-05-29T15:04:37;9.77;;;6.60;;
15155;SDS011;7678;50.058;8.306;2023-05-29T15:07:05;5.93;;;3.55;;
15155;SDS011;7678;50.058;8.306;2023-05-29T15:09:34;5.82;;;4.32;;
15155;SDS011;7678;50.058;8.306;2023-05-29T15:12:02;5.60;;;4.07;;
15155;SDS011;7678;50.058;8.306;2023-05-29T15:14:33;6.50;;;5.78;;
15155;SDS011;7678;50.058;8.306;2023-05-29T15:17:02;9.48;;;5.10;;
15155;SDS011;7678;50.058;8.306;2023-05-29T15:19:30;5.55;;;4.68;;
15155;SDS011;7678;50.058;8.306;2023-05-29T15:22:00;5.68;;;3.42;;